SKLT/LET METAR and TAF weather

Enter ICAO airport designator
Station Type Date Time Source
SKLT METAR 2021/09/25 11:00 UTC NOAA

SKLT 251100Z 00000KT 9999 -DZ FEW010 BKN080 22/22 Q1014 RERA RMK A2994


Station Type Date Time Source
SKLT Decoded METAR 2021/09/25 11:00 UTC NOAA

Leticia / Vasquez Cobo, Colombia (SKLT) 04-10S 069-57W 84M
Sep 25, 2021 - 07:00 AM EDT / 2021.09.25 1100 UTC
Wind: Calm:0
Visibility: greater than 7 mile(s):0
Sky conditions: mostly cloudy
Weather: light drizzle; rain during the past hour
Temperature: 71 F (22 C)
Dew Point: 71 F (22 C)
Relative Humidity: 100%
Pressure (altimeter): 29.94 in. Hg (1014 hPa)
ob: SKLT 251100Z 00000KT 9999 -DZ FEW010 BKN080 22/22 Q1014 RERA RMK A2994
cycle: 11

Station Type Date Time Source
SKLT TAF 2021/09/25 12:45 UTC NOAA

TAF SKLT 251030Z 2512/2612 VRB02KT 9999 SCT012 BKN080
TEMPO 2512/2515 RADZ BKN010
BECMG 2516/2518 27007KT SCT017 BKN090 PROB40
TEMPO 2518/2523 TS SCT015CB
BECMG 2600/2601 VRB02KT FEW015 SCT080 TX31/2518Z TN22/2610Z

Example: see airport list